No: Datum Uhrzeit Land Meereshöhe Ort Wetter Info Temp/°C Luftfeuchte Luftdruck Wind Regen Schnee
8911 >22.07.2017 >11:22:21 566 m Brienz Sonne + 21° 73% 1016.0 hPa 2,9 km/h 0,0 mm 0 cm
8910 >21.07.2017 >18:08:42 525 m Ottnang/Hausruck bewölkt-Sonne + 25,1° 53% 1007.4 hPa 3,3 km/h 0,0 mm 0 cm
8909 >21.07.2017 >12:08:47 228 m Uettingen bewölkt-Sonne + 24,6° 60% 1013.5 hPa 11,5 km/h 0,0 mm 0 cm
8908 >20.07.2017 >15:11:52 310 m Capellen bewölkt-Sonne + 24,2° 56% 1010.1 hPa 7,9 km/h 0,0 mm 0 cm
8907 >20.07.2017 >06:40:15 48 m Berlin Sonne-Regen + 18,4° 93% 1010.7 hPa 1,0 km/h 1,0 mm 0 cm
8906 >19.07.2017 >14:09:23 276 m Lana bewölkt-Sonne + 26,8° 75% 1019.2 hPa 1,2 km/h 0,0 mm 0 cm
8905 >19.07.2017 >08:05:33 310 m Capellen bewölkt-Sonne + 20,6° 77% 1010.5 hPa 4,7 km/h 0,0 mm 0 cm
8904 >18.07.2017 >17:59:39 566 m Brienz bedeckt + 24,7° 66% 1017.1 hPa 2,5 km/h 0,0 mm 0 cm
8903 >18.07.2017 >13:18:26 324 m Windhof Sonne + 28,7° 54% 1015.6 hPa 4,7 km/h 0,0 mm 0 cm
8902 >18.07.2017 >10:13:08 228 m Uettingen bewölkt-Sonne + 25,1° 67% 1018.1 hPa 2,6 km/h 0,0 mm 0 cm
8901 >17.07.2017 >06:50:23 276 m Lana Sonne + 17,9° 60% 1025.1 hPa 3,0 km/h 0,0 mm 0 cm
8900 >17.07.2017 >06:37:51 310 m Capellen bewölkt-Sonne + 13,3° 97% 1021.2 hPa 0,0 km/h 0,0 mm 0 cm
8899 >16.07.2017 >17:30:07 306 m Meran Sonne + 28,9° 38% 1024.6 hPa 1,2 km/h 0,0 mm 0 cm
8898 >16.07.2017 >10:01:51 441 m Buochs bewölkt + 18,8° 66% 1027.1 hPa 0,0 km/h 0,0 mm 0 cm
8897 >15.07.2017 >13:45:35 257 m Aachen bedeckt + 18,4° 59% 1022.1 hPa 4,3 km/h 0,0 mm 0 cm
8896 >15.07.2017 >11:37:13 566 m Brienz bewölkt-Sonne + 21,4° 46% 1021.4 hPa 2,9 km/h 0,0 mm 0 cm
8895 >15.07.2017 >09:21:01 228 m Uettingen bedeckt + 15,4° 72% 1021.9 hPa 11,7 km/h 0,0 mm 0 cm
8894 >14.07.2017 >07:28:05 310 m Capellen bedeckt + 11,7° 96% 1016.8 hPa 0,0 km/h 0,0 mm 0 cm
8893 >14.07.2017 >07:01:31 494 m Büren NW bewölkt + 17,7° 76% 1017.8 hPa 0,0 km/h 0,0 mm 0 cm
8892 >13.07.2017 >13:53:06 357 m Fichtenberg Sonne + 17,9° 59% 1021.6 hPa 1,7 km/h 0,0 mm 0 cm
8891 >13.07.2017 >06:47:25 310 m Capellen Sonne + 7,1° 97% 1022.7 hPa 0,0 km/h 0,0 mm 0 cm
8890 >12.07.2017 >12:02:11 357 m Fichtenberg bedeckt + 21,1° 75% 1009.7 hPa 1,6 km/h 0,0 mm 0 cm
8889 >12.07.2017 >06:41:25 1 m Klakbaan Regen + 15,4° 100% 1006.0 hPa 2,1 km/h 22,0 mm 0 cm
8888 >11.07.2017 >15:49:42 310 m Capellen Regen + 18,6° 82% 1013.3 hPa 0,0 km/h 0,6 mm 0 cm
8887 >11.07.2017 >13:09:21 228 m Uettingen Regen + 21,9° 66% 975.0 hPa 5,8 km/h 7,6 mm 0 cm

Admin